メインページ
METAR-TAF:

METAR-TAF

空港 :

アリカ, チリ

緯度: 18-20S, 経度: 070-20W, 海抜: 58m

現時点の気象観測

当レポートは48分前の05:00(UTC)に作成
北/北東の風 5kt
気温 20°C
湿度 60%
気圧 1014 hPa
視程10km以上
1,500メートル以下は雲なし、積乱雲なし

METAR: SCAR 210500Z 02005KT CAVOK 20/12 Q1014

時間: 02:48 (05:48 UTC)

予報

当レポートは1時間18分前の04:30(UTC)に作成
予報は21日の 06時(UTC)から 22日の 06時(UTC)まで有効
東/北東の風 4kt
視程10km以上
1,500メートル以下は雲なし、積乱雲なし
21日の 16時(UTC)から 21日の 18時(UTC)まで徐々に
南西の風 11kt
21日の 22時(UTC)から 22日の 00時(UTC)まで徐々に
の風 4kt
22日の 04時(UTC)から 22日の 06時(UTC)まで徐々に
北東の風 4kt

TAF: SCAR 210430Z 2106/2206 06004KT CAVOK TN19/2110Z TX24/2117Z BECMG 2116/2118 22011KT BECMG 2122/2200 18004KT BECMG 2204/2206 05004KT

4,000以上の空港の気象観測と天気予報(METAR報とTAF報)

利用可能な観測所は地図上に黄色い丸と赤い丸で示す。

丸の上にカーソルを重ねると観測所名を参照できる。

次にクリックすると気象観測と天気予報を参照できる。

マップの切り替え:黒色「×」印の緑ボタンをクリックして拡大、「-」印の緑ボタンをクリックして縮小、緑色の三角印をクリックして隣りの地図に切り替え


METAR-TAF: